createdAt,value
2022-09-15T00:00:50.209Z,12.95
2022-09-15T00:03:17.218Z,12.81
2022-09-15T00:05:44.407Z,12.82
2022-09-15T00:08:12.960Z,12.94
2022-09-15T00:10:47.179Z,12.81
2022-09-15T00:13:14.049Z,12.81
2022-09-15T00:15:40.363Z,12.87
2022-09-15T00:18:07.141Z,12.64
2022-09-15T00:20:33.471Z,12.58
2022-09-15T00:22:59.797Z,12.60
2022-09-15T00:25:26.130Z,12.40
2022-09-15T00:27:52.419Z,12.41
2022-09-15T00:30:18.774Z,12.42
2022-09-15T00:32:45.088Z,12.41
2022-09-15T00:35:12.111Z,12.62
2022-09-15T00:37:38.437Z,12.49
2022-09-15T00:40:05.115Z,12.43
2022-09-15T00:42:31.446Z,12.43
2022-09-15T00:44:59.215Z,12.44
2022-09-15T00:47:28.773Z,12.24
2022-09-15T00:49:59.343Z,12.33
2022-09-15T00:52:32.197Z,12.41
2022-09-15T00:55:08.135Z,12.20
2022-09-15T00:57:40.462Z,12.28
2022-09-15T01:00:09.598Z,12.29
2022-09-15T01:02:37.245Z,12.46
2022-09-15T01:05:07.352Z,12.41
2022-09-15T01:07:37.187Z,12.32
2022-09-15T01:10:09.339Z,12.54
2022-09-15T01:12:35.674Z,12.46
2022-09-15T01:15:02.024Z,12.63
2022-09-15T01:17:41.113Z,12.43
2022-09-15T01:20:07.454Z,12.62
2022-09-15T01:22:45.126Z,12.51
2022-09-15T01:25:30.020Z,12.57
2022-09-15T01:28:15.151Z,12.57
2022-09-15T01:30:46.792Z,12.50
2022-09-15T01:33:32.076Z,12.40
2022-09-15T01:36:04.983Z,12.33
2022-09-15T01:38:39.771Z,12.26
2022-09-15T01:41:13.146Z,12.22
2022-09-15T01:43:43.681Z,12.40
2022-09-15T01:46:11.433Z,12.35
2022-09-15T01:48:39.483Z,12.32
2022-09-15T01:51:06.929Z,12.24
2022-09-15T01:53:33.794Z,12.26
2022-09-15T01:56:02.410Z,12.36
2022-09-15T01:58:28.771Z,12.28
2022-09-15T02:01:12.245Z,12.28
2022-09-15T02:03:47.727Z,12.29
2022-09-15T02:06:45.394Z,11.92
2022-09-15T02:09:17.859Z,12.09
2022-09-15T02:11:49.002Z,11.94
2022-09-15T02:14:24.039Z,12.02
2022-09-15T02:16:52.666Z,12.10
2022-09-15T02:19:19.660Z,12.24
2022-09-15T02:21:53.222Z,11.96
2022-09-15T02:24:23.223Z,12.03
2022-09-15T02:26:51.503Z,11.95
2022-09-15T02:29:19.696Z,11.80
2022-09-15T02:31:47.198Z,11.77
2022-09-15T02:34:19.598Z,11.80
2022-09-15T02:36:46.629Z,11.78
2022-09-15T02:39:15.530Z,11.79
2022-09-15T02:41:41.887Z,11.77
2022-09-15T02:44:08.730Z,11.68
2022-09-15T02:46:35.226Z,11.62
2022-09-15T02:49:01.599Z,11.88
2022-09-15T02:51:28.047Z,11.89
2022-09-15T02:53:54.597Z,12.04
2022-09-15T02:56:20.915Z,11.92
2022-09-15T02:58:47.215Z,11.82
2022-09-15T03:01:17.185Z,11.83
2022-09-15T03:03:44.598Z,11.78
2022-09-15T03:06:17.390Z,11.75
2022-09-15T03:08:52.095Z,11.56
2022-09-15T03:11:19.447Z,11.51
2022-09-15T03:13:46.051Z,11.51
2022-09-15T03:16:13.366Z,11.51
2022-09-15T03:18:40.126Z,11.31
2022-09-15T03:21:07.469Z,11.21
2022-09-15T03:23:33.814Z,11.30
2022-09-15T03:26:00.963Z,11.34
2022-09-15T03:28:27.789Z,11.15
2022-09-15T03:30:54.782Z,11.07
2022-09-15T03:33:21.943Z,11.18
2022-09-15T03:35:49.239Z,11.06
2022-09-15T03:38:15.821Z,11.21
2022-09-15T03:40:45.482Z,11.23
2022-09-15T03:43:16.619Z,11.28
2022-09-15T03:45:44.983Z,11.28
2022-09-15T03:48:11.398Z,11.15
2022-09-15T03:50:37.713Z,11.17
2022-09-15T03:53:04.022Z,11.06
2022-09-15T03:55:30.430Z,10.87
2022-09-15T03:57:56.733Z,11.04
2022-09-15T04:00:23.183Z,11.01
2022-09-15T04:02:49.498Z,11.03
2022-09-15T04:05:15.893Z,10.93
2022-09-15T04:07:42.187Z,10.90
2022-09-15T04:10:08.970Z,10.74
2022-09-15T04:12:36.270Z,10.78
2022-09-15T04:15:02.610Z,10.67
2022-09-15T04:17:28.937Z,10.48
2022-09-15T04:19:55.545Z,10.72
2022-09-15T04:22:21.949Z,10.60
2022-09-15T04:24:49.476Z,10.64
2022-09-15T04:27:16.707Z,10.63
2022-09-15T04:29:43.519Z,10.55
2022-09-15T04:32:09.871Z,10.62
2022-09-15T04:34:41.229Z,10.75
2022-09-15T04:37:07.869Z,10.93
2022-09-15T04:39:34.176Z,10.96
2022-09-15T04:42:00.550Z,11.08
2022-09-15T04:44:26.866Z,11.27
2022-09-15T04:46:53.253Z,11.44
2022-09-15T04:49:19.622Z,11.61
2022-09-15T04:51:45.986Z,11.64
2022-09-15T04:54:12.314Z,11.47
2022-09-15T04:56:39.106Z,11.50
2022-09-15T04:59:05.432Z,11.49
2022-09-15T05:01:33.837Z,11.34
2022-09-15T05:04:00.890Z,11.45
2022-09-15T05:06:27.520Z,11.45
2022-09-15T05:08:55.316Z,11.48
2022-09-15T05:11:21.936Z,11.55
2022-09-15T05:13:48.263Z,11.46
2022-09-15T05:16:16.162Z,11.40
2022-09-15T05:18:43.467Z,11.31
2022-09-15T05:21:11.493Z,11.51
2022-09-15T05:23:37.879Z,11.35
2022-09-15T05:26:06.329Z,11.32
2022-09-15T05:28:36.050Z,11.30
2022-09-15T05:31:07.133Z,11.36
2022-09-15T05:33:34.087Z,11.53
2022-09-15T05:36:03.330Z,11.49
2022-09-15T05:38:30.897Z,11.34
2022-09-15T05:41:26.748Z,11.48
2022-09-15T05:43:53.831Z,11.27
2022-09-15T05:46:20.573Z,11.21
2022-09-15T05:48:47.062Z,11.26
2022-09-15T05:51:14.072Z,11.34
2022-09-15T05:53:40.764Z,11.41
2022-09-15T05:56:08.232Z,11.50
2022-09-15T05:58:34.910Z,11.65
2022-09-15T06:01:05.479Z,11.70
2022-09-15T06:03:31.913Z,12.04
2022-09-15T06:05:58.782Z,11.99
2022-09-15T06:08:25.167Z,11.86
2022-09-15T06:10:51.461Z,11.98
2022-09-15T06:13:17.792Z,11.96
2022-09-15T06:15:44.146Z,12.20
2022-09-15T06:18:10.551Z,12.09
2022-09-15T06:20:36.857Z,12.12
2022-09-15T06:23:03.170Z,12.44
2022-09-15T06:25:29.470Z,12.69
2022-09-15T06:27:55.804Z,13.12
2022-09-15T06:30:22.110Z,13.15
2022-09-15T06:32:49.078Z,13.31
2022-09-15T06:35:15.591Z,13.06
2022-09-15T06:37:41.885Z,12.82
2022-09-15T06:40:08.620Z,12.77
2022-09-15T06:42:34.967Z,12.78
2022-09-15T06:45:01.359Z,12.67
2022-09-15T06:47:33.699Z,12.53
2022-09-15T06:50:00.399Z,12.50
2022-09-15T06:52:27.169Z,12.46
2022-09-15T06:54:53.480Z,12.68
2022-09-15T06:57:19.854Z,12.67
2022-09-15T06:59:46.163Z,12.74
2022-09-15T07:02:12.585Z,12.81
2022-09-15T07:04:39.191Z,12.80
2022-09-15T07:07:05.486Z,12.85
2022-09-15T07:09:31.786Z,12.92
2022-09-15T07:11:58.742Z,12.97
2022-09-15T07:14:25.049Z,12.95
2022-09-15T07:16:51.438Z,13.10
2022-09-15T07:19:17.808Z,13.16
2022-09-15T07:21:44.147Z,13.11
2022-09-15T07:24:10.606Z,13.26
2022-09-15T07:26:37.769Z,13.23
2022-09-15T07:29:05.361Z,13.40
2022-09-15T07:31:32.978Z,13.49
2022-09-15T07:33:59.790Z,13.65
2022-09-15T07:36:26.103Z,13.71
2022-09-15T07:38:52.575Z,13.68
2022-09-15T07:41:22.997Z,13.86
2022-09-15T07:43:51.182Z,13.74
2022-09-15T07:46:17.990Z,13.79
2022-09-15T07:48:48.374Z,14.07
2022-09-15T07:51:15.202Z,14.26
2022-09-15T07:53:41.782Z,14.20
2022-09-15T07:56:08.563Z,14.12
2022-09-15T07:58:34.890Z,14.50
2022-09-15T08:01:02.077Z,14.60
2022-09-15T08:03:28.459Z,14.57
2022-09-15T08:06:01.690Z,14.41
2022-09-15T08:08:28.638Z,14.66
2022-09-15T08:10:55.380Z,14.65
2022-09-15T08:13:21.960Z,14.86
2022-09-15T08:15:48.500Z,14.76
2022-09-15T08:18:15.345Z,14.77
2022-09-15T08:20:42.311Z,14.63
2022-09-15T08:23:09.552Z,14.66
2022-09-15T08:25:35.873Z,14.82
2022-09-15T08:28:02.362Z,14.96
2022-09-15T08:30:28.913Z,15.21
2022-09-15T08:32:55.283Z,14.96
2022-09-15T08:35:21.590Z,15.00
2022-09-15T08:37:47.896Z,15.13
2022-09-15T08:40:16.599Z,15.16
2022-09-15T08:42:45.109Z,15.09
2022-09-15T08:45:19.519Z,15.02
2022-09-15T08:47:46.958Z,15.26
2022-09-15T08:50:13.325Z,15.49
2022-09-15T08:52:45.835Z,15.38
2022-09-15T08:55:22.613Z,15.29
2022-09-15T08:57:49.130Z,15.41
2022-09-15T09:00:16.735Z,15.48
2022-09-15T09:02:43.099Z,15.37
2022-09-15T09:05:34.322Z,15.10
2022-09-15T09:08:09.942Z,15.51
2022-09-15T09:10:36.410Z,15.27
2022-09-15T09:13:14.884Z,15.57
2022-09-15T09:15:41.289Z,15.72
2022-09-15T09:18:10.870Z,16.18
2022-09-15T09:20:48.278Z,16.04
2022-09-15T09:23:15.958Z,15.86
2022-09-15T09:25:43.433Z,15.84
2022-09-15T09:28:28.723Z,15.94
2022-09-15T09:30:57.733Z,15.79
2022-09-15T09:33:24.195Z,15.94
2022-09-15T09:35:54.040Z,16.14
2022-09-15T09:38:22.383Z,15.99
2022-09-15T09:40:49.454Z,15.81
2022-09-15T09:43:15.940Z,15.70
2022-09-15T09:45:42.596Z,15.38
2022-09-15T09:48:15.385Z,15.39
2022-09-15T09:50:45.306Z,15.52
2022-09-15T09:53:19.757Z,15.23
2022-09-15T09:55:46.119Z,15.21
2022-09-15T09:58:15.540Z,15.16
2022-09-15T10:00:41.914Z,15.38
2022-09-15T10:03:14.866Z,15.34
2022-09-15T10:05:42.011Z,15.74
2022-09-15T10:08:15.413Z,15.94
2022-09-15T10:10:49.188Z,15.86
2022-09-15T10:13:15.531Z,16.06
2022-09-15T10:15:42.499Z,16.22
2022-09-15T10:18:25.506Z,16.54
2022-09-15T10:20:51.826Z,16.84
2022-09-15T10:23:18.106Z,16.67
2022-09-15T10:25:58.635Z,16.59
2022-09-15T10:28:27.066Z,16.76
2022-09-15T10:31:06.903Z,17.00
2022-09-15T10:33:35.111Z,17.15
2022-09-15T10:36:03.515Z,17.09
2022-09-15T10:38:53.263Z,17.19
2022-09-15T10:41:22.515Z,17.16
2022-09-15T10:43:48.886Z,17.23
2022-09-15T10:46:25.179Z,17.63
2022-09-15T10:48:52.011Z,18.57
2022-09-15T10:51:27.572Z,18.67
2022-09-15T10:54:06.246Z,19.60
2022-09-15T10:56:32.550Z,17.61
2022-09-15T10:59:09.274Z,16.97
2022-09-15T11:01:38.680Z,15.41
2022-09-15T11:04:14.108Z,14.87
2022-09-15T11:06:40.405Z,14.12
2022-09-15T11:09:12.866Z,13.68
2022-09-15T11:11:48.334Z,13.48
2022-09-15T11:14:33.559Z,13.57
2022-09-15T11:17:18.666Z,13.48
2022-09-15T11:19:51.150Z,13.62
2022-09-15T11:22:21.303Z,14.12
2022-09-15T11:24:54.832Z,14.82
2022-09-15T11:27:36.096Z,15.56
2022-09-15T11:30:02.637Z,16.75
2022-09-15T11:32:38.159Z,16.63
2022-09-15T11:35:26.411Z,18.04
2022-09-15T11:37:54.076Z,16.83
2022-09-15T11:40:26.223Z,17.90
2022-09-15T11:42:57.437Z,17.97
2022-09-15T11:45:29.158Z,18.64
2022-09-15T11:48:03.609Z,18.04
2022-09-15T11:50:32.346Z,18.97
2022-09-15T11:53:05.843Z,19.57
2022-09-15T11:55:43.363Z,20.66
2022-09-15T11:58:29.351Z,19.79
2022-09-15T12:01:06.403Z,19.25
2022-09-15T12:03:37.223Z,19.21
2022-09-15T12:06:07.634Z,19.14
2022-09-15T12:08:37.512Z,19.51
2022-09-15T12:11:07.739Z,19.35
2022-09-15T12:13:34.524Z,20.04
2022-09-15T12:16:02.219Z,20.90
2022-09-15T12:18:39.254Z,21.24
2022-09-15T12:21:26.832Z,20.12
2022-09-15T12:23:56.031Z,18.41
2022-09-15T12:26:23.623Z,18.46
2022-09-15T12:28:54.866Z,18.22
2022-09-15T12:31:29.268Z,18.28
2022-09-15T12:33:57.796Z,18.17
2022-09-15T12:36:33.399Z,19.25
2022-09-15T12:39:00.598Z,20.91
2022-09-15T12:41:27.398Z,21.48
2022-09-15T12:44:05.278Z,19.97
2022-09-15T12:46:32.989Z,21.09
2022-09-15T12:49:01.584Z,21.66
2022-09-15T12:51:29.209Z,21.46
2022-09-15T12:54:02.681Z,22.21
2022-09-15T12:56:31.161Z,20.21
2022-09-15T12:59:05.918Z,19.17
2022-09-15T13:01:53.759Z,18.60
2022-09-15T13:04:26.335Z,18.91
2022-09-15T13:07:11.461Z,20.71
2022-09-15T13:09:45.166Z,21.56
2022-09-15T13:12:15.433Z,19.69
2022-09-15T13:14:44.981Z,20.05
2022-09-15T13:17:16.815Z,19.66
2022-09-15T13:19:46.588Z,20.13
2022-09-15T13:22:19.880Z,20.49
2022-09-15T13:24:46.162Z,18.55
2022-09-15T13:27:13.618Z,17.75
2022-09-15T13:29:48.961Z,17.17
2022-09-15T13:32:32.523Z,16.40
2022-09-15T13:35:17.101Z,16.78
2022-09-15T13:38:16.604Z,17.10
2022-09-15T13:40:50.447Z,16.44
2022-09-15T13:43:40.754Z,16.17
2022-09-15T13:46:12.434Z,16.60
2022-09-15T13:48:57.742Z,16.47
2022-09-15T13:51:26.715Z,16.67
2022-09-15T13:54:06.868Z,17.40
2022-09-15T13:56:37.478Z,19.09
2022-09-15T13:59:11.820Z,17.40
2022-09-15T14:01:42.148Z,16.15
2022-09-15T14:04:19.117Z,16.70
2022-09-15T14:06:55.941Z,18.09
2022-09-15T14:09:28.053Z,20.96
2022-09-15T14:11:58.157Z,20.70
2022-09-15T14:14:27.219Z,22.23
2022-09-15T14:16:54.473Z,20.52
2022-09-15T14:19:20.816Z,20.49
2022-09-15T14:21:51.302Z,19.18
2022-09-15T14:24:25.547Z,20.35
2022-09-15T14:26:52.298Z,20.42
2022-09-15T14:29:24.354Z,20.99
2022-09-15T14:31:50.851Z,21.24
2022-09-15T14:34:20.460Z,20.41
2022-09-15T14:36:54.061Z,23.37
2022-09-15T14:39:21.905Z,21.88
2022-09-15T14:41:48.956Z,22.63
2022-09-15T14:47:23.136Z,16.84
2022-09-15T14:49:49.562Z,16.13
2022-09-15T14:52:22.657Z,16.16
2022-09-15T14:54:50.035Z,15.51
2022-09-15T14:57:20.283Z,17.93
2022-09-15T14:59:52.469Z,17.52
2022-09-15T15:02:24.852Z,17.98
2022-09-15T15:04:57.764Z,19.82
2022-09-15T15:07:25.882Z,20.57
2022-09-15T15:09:58.105Z,21.14
2022-09-15T15:12:34.768Z,19.80
2022-09-15T15:15:01.555Z,19.58
2022-09-15T15:17:32.302Z,20.08
2022-09-15T15:20:00.211Z,20.61
2022-09-15T15:22:26.873Z,20.14
2022-09-15T15:24:53.672Z,19.62
2022-09-15T15:27:23.754Z,18.85
2022-09-15T15:29:50.074Z,19.23
2022-09-15T15:32:17.596Z,17.93
2022-09-15T15:34:48.417Z,17.76
2022-09-15T15:37:23.745Z,16.52
2022-09-15T15:39:50.149Z,16.60
2022-09-15T15:42:16.938Z,16.09
2022-09-15T15:45:01.699Z,15.78
2022-09-15T15:47:30.490Z,15.86
2022-09-15T15:50:15.866Z,15.57
2022-09-15T15:52:43.584Z,15.99
2022-09-15T15:55:12.920Z,16.26
2022-09-15T15:57:39.343Z,17.62
2022-09-15T16:00:21.252Z,18.62
2022-09-15T16:02:48.553Z,16.71
2022-09-15T16:05:15.285Z,16.69
2022-09-15T16:07:42.818Z,17.10
2022-09-15T16:10:11.253Z,17.45
2022-09-15T16:12:37.618Z,17.20
2022-09-15T16:15:10.445Z,16.50
2022-09-15T16:17:36.750Z,16.89
2022-09-15T16:20:03.583Z,18.57
2022-09-15T16:22:30.069Z,17.99
2022-09-15T16:24:56.381Z,18.36
2022-09-15T16:27:22.707Z,16.35
2022-09-15T16:29:49.711Z,17.08
2022-09-15T16:32:17.701Z,18.06
2022-09-15T16:34:44.019Z,17.53
2022-09-15T16:37:10.342Z,18.06
2022-09-15T16:39:37.227Z,18.07
2022-09-15T16:42:04.719Z,16.28
2022-09-15T16:44:31.187Z,15.88
2022-09-15T16:46:57.632Z,15.67
2022-09-15T16:49:24.013Z,15.30
2022-09-15T16:51:50.338Z,14.61
2022-09-15T16:54:18.140Z,14.40
2022-09-15T16:56:45.587Z,14.71
2022-09-15T16:59:12.475Z,14.74
2022-09-15T17:01:39.069Z,14.45
2022-09-15T17:04:11.452Z,14.23
2022-09-15T17:06:37.770Z,13.97
2022-09-15T17:09:04.162Z,13.56
2022-09-15T17:11:30.498Z,13.80
2022-09-15T17:13:56.833Z,13.70
2022-09-15T17:16:23.205Z,13.66
2022-09-15T17:18:49.574Z,13.35
2022-09-15T17:21:17.982Z,13.60
2022-09-15T17:23:45.957Z,13.40
2022-09-15T17:26:17.778Z,13.55
2022-09-15T17:28:44.098Z,13.37
2022-09-15T17:31:18.374Z,13.27
2022-09-15T17:33:45.470Z,13.24
2022-09-15T17:36:11.978Z,13.13
2022-09-15T17:38:40.870Z,13.13
2022-09-15T17:41:07.849Z,12.99
2022-09-15T17:43:34.522Z,12.88
2022-09-15T17:46:01.437Z,12.64
2022-09-15T17:48:27.926Z,12.58
2022-09-15T17:50:54.247Z,12.60
2022-09-15T17:53:22.385Z,12.68
2022-09-15T17:55:49.683Z,12.68
2022-09-15T17:58:16.369Z,12.63
2022-09-15T18:00:43.321Z,12.41
2022-09-15T18:03:15.846Z,12.31
2022-09-15T18:05:42.314Z,12.26
2022-09-15T18:08:09.055Z,12.25
2022-09-15T18:10:35.928Z,12.26
2022-09-15T18:13:02.963Z,12.26
2022-09-15T18:15:30.883Z,12.10
2022-09-15T18:17:58.650Z,12.30
2022-09-15T18:20:26.414Z,12.00
2022-09-15T18:22:53.224Z,12.15
2022-09-15T18:25:25.447Z,12.12
2022-09-15T18:27:52.067Z,12.20
2022-09-15T18:30:19.327Z,12.25
2022-09-15T18:32:45.785Z,12.07
2022-09-15T18:35:18.401Z,11.94
2022-09-15T18:37:45.678Z,12.04
2022-09-15T18:40:13.695Z,11.84
2022-09-15T18:42:40.130Z,11.86
2022-09-15T18:45:07.585Z,11.92
2022-09-15T18:47:34.087Z,11.96
2022-09-15T18:50:00.744Z,11.88
2022-09-15T18:52:27.455Z,11.74
2022-09-15T18:54:53.888Z,11.86
2022-09-15T18:57:20.337Z,11.91
2022-09-15T18:59:47.427Z,11.70
2022-09-15T19:02:14.557Z,11.57
2022-09-15T19:04:41.902Z,11.56
2022-09-15T19:07:09.037Z,11.40
2022-09-15T19:09:35.870Z,11.23
2022-09-15T19:12:02.802Z,11.38
2022-09-15T19:14:29.578Z,11.55
2022-09-15T19:16:57.930Z,11.47
2022-09-15T19:19:25.272Z,11.26
2022-09-15T19:21:51.600Z,11.50
2022-09-15T19:24:17.930Z,11.41
2022-09-15T19:26:46.580Z,11.58
2022-09-15T19:29:13.242Z,11.60
2022-09-15T19:31:42.176Z,11.38
2022-09-15T19:34:08.809Z,11.26
2022-09-15T19:36:35.250Z,11.20
2022-09-15T19:39:03.337Z,11.22
2022-09-15T19:41:30.388Z,10.98
2022-09-15T19:43:56.931Z,10.84
2022-09-15T19:46:24.485Z,11.01
2022-09-15T19:48:51.188Z,10.86
2022-09-15T19:51:17.745Z,10.84
2022-09-15T19:53:44.589Z,10.79
2022-09-15T19:56:18.321Z,11.06
2022-09-15T19:58:45.026Z,11.15
2022-09-15T20:01:11.645Z,10.83
2022-09-15T20:03:38.122Z,11.07
2022-09-15T20:06:05.491Z,10.94
2022-09-15T20:08:32.106Z,10.77
2022-09-15T20:10:58.498Z,10.77
2022-09-15T20:13:25.051Z,10.67
2022-09-15T20:15:55.422Z,10.68
2022-09-15T20:18:22.186Z,10.63
2022-09-15T20:20:48.486Z,10.57
2022-09-15T20:23:15.201Z,10.43
2022-09-15T20:25:41.530Z,10.58
2022-09-15T20:28:07.909Z,10.41
2022-09-15T20:30:34.249Z,10.32
2022-09-15T20:33:00.595Z,10.20
2022-09-15T20:35:26.932Z,10.36
2022-09-15T20:37:53.256Z,10.10
2022-09-15T20:40:19.618Z,9.93
2022-09-15T20:42:46.127Z,9.94
2022-09-15T20:45:12.504Z,9.86
2022-09-15T20:47:38.819Z,9.91
2022-09-15T20:50:06.565Z,10.10
2022-09-15T20:52:37.602Z,10.07
2022-09-15T20:55:04.847Z,9.94
2022-09-15T20:57:31.926Z,9.60
2022-09-15T20:59:58.238Z,9.86
2022-09-15T21:02:24.600Z,9.93
2022-09-15T21:04:50.910Z,10.10
2022-09-15T21:07:17.263Z,10.15
2022-09-15T21:09:44.579Z,10.26
2022-09-15T21:12:10.886Z,10.38
2022-09-15T21:14:37.222Z,10.51
2022-09-15T21:17:03.570Z,10.33
2022-09-15T21:19:30.905Z,10.37
2022-09-15T21:21:58.463Z,10.27
2022-09-15T21:24:24.888Z,10.25
2022-09-15T21:27:09.858Z,10.10
2022-09-15T21:29:37.028Z,10.09
2022-09-15T21:32:03.478Z,10.11
2022-09-15T21:34:30.210Z,9.88
2022-09-15T21:36:56.807Z,9.97
2022-09-15T21:39:23.182Z,10.09
2022-09-15T21:41:49.972Z,9.96
2022-09-15T21:44:16.302Z,9.98
2022-09-15T21:46:44.846Z,9.96
2022-09-15T21:49:11.177Z,9.88
2022-09-15T21:51:37.677Z,9.90
2022-09-15T21:54:04.883Z,9.74
2022-09-15T21:56:31.276Z,9.73
2022-09-15T21:58:57.794Z,9.69
2022-09-15T22:01:25.634Z,9.69
2022-09-15T22:03:53.384Z,9.64
2022-09-15T22:06:21.393Z,9.60
2022-09-15T22:08:48.158Z,9.62
2022-09-15T22:11:14.797Z,9.58
2022-09-15T22:13:43.578Z,9.71
2022-09-15T22:16:20.633Z,9.61
2022-09-15T22:18:47.517Z,9.49
2022-09-15T22:21:17.221Z,9.46
2022-09-15T22:23:44.654Z,9.44
2022-09-15T22:26:13.055Z,9.52
2022-09-15T22:28:39.652Z,9.33
2022-09-15T22:31:07.258Z,9.37
2022-09-15T22:33:34.067Z,9.55
2022-09-15T22:36:00.444Z,9.43
2022-09-15T22:38:28.711Z,9.41
2022-09-15T22:40:55.479Z,9.39
2022-09-15T22:43:22.083Z,9.64
2022-09-15T22:45:48.578Z,9.51
2022-09-15T22:48:14.988Z,9.53
2022-09-15T22:50:43.292Z,9.79
2022-09-15T22:53:09.817Z,9.75
2022-09-15T22:55:36.144Z,9.68
2022-09-15T22:58:02.473Z,9.73
2022-09-15T23:00:28.975Z,9.80
2022-09-15T23:02:56.146Z,9.97
2022-09-15T23:05:22.470Z,9.88
2022-09-15T23:07:48.816Z,9.79
2022-09-15T23:10:15.389Z,9.75
2022-09-15T23:12:41.758Z,9.76
2022-09-15T23:15:08.411Z,9.76
2022-09-15T23:17:34.778Z,9.79
2022-09-15T23:20:01.272Z,9.67
2022-09-15T23:22:27.608Z,9.52
2022-09-15T23:24:54.127Z,9.49
2022-09-15T23:27:20.500Z,9.56
2022-09-15T23:29:46.836Z,9.47
2022-09-15T23:32:13.138Z,9.52
2022-09-15T23:34:39.463Z,9.58
2022-09-15T23:37:05.795Z,9.48
2022-09-15T23:39:32.164Z,9.58
2022-09-15T23:41:58.473Z,9.58
2022-09-15T23:44:24.847Z,9.72
2022-09-15T23:46:51.300Z,9.74
2022-09-15T23:49:18.819Z,9.79
2022-09-15T23:51:45.400Z,9.98
2022-09-15T23:54:11.769Z,10.03
2022-09-15T23:56:38.315Z,10.02
2022-09-15T23:59:04.639Z,9.91
